sensor_id;sensor_type;location;lat;lon;timestamp;P1;durP1;ratioP1;P2;durP2;ratioP2
4575;SDS011;2300;51.874;8.430;2022-10-16T00:00:40;65.97;;;62.30;;
4575;SDS011;2300;51.874;8.430;2022-10-16T00:03:08;65.47;;;61.97;;
4575;SDS011;2300;51.874;8.430;2022-10-16T00:05:37;62.65;;;59.25;;
4575;SDS011;2300;51.874;8.430;2022-10-16T00:08:05;66.80;;;63.40;;
4575;SDS011;2300;51.874;8.430;2022-10-16T00:10:31;63.92;;;60.42;;
4575;SDS011;2300;51.874;8.430;2022-10-16T00:12:58;64.22;;;60.67;;
4575;SDS011;2300;51.874;8.430;2022-10-16T00:15:26;63.45;;;59.63;;
4575;SDS011;2300;51.874;8.430;2022-10-16T00:17:52;62.70;;;59.33;;
4575;SDS011;2300;51.874;8.430;2022-10-16T00:20:19;63.42;;;59.35;;
4575;SDS011;2300;51.874;8.430;2022-10-16T00:22:45;65.32;;;61.53;;
4575;SDS011;2300;51.874;8.430;2022-10-16T00:25:12;66.38;;;62.85;;
4575;SDS011;2300;51.874;8.430;2022-10-16T00:27:38;68.10;;;64.22;;
4575;SDS011;2300;51.874;8.430;2022-10-16T00:30:05;64.45;;;61.03;;
4575;SDS011;2300;51.874;8.430;2022-10-16T00:32:35;70.28;;;66.10;;
4575;SDS011;2300;51.874;8.430;2022-10-16T00:35:02;69.45;;;65.55;;
4575;SDS011;2300;51.874;8.430;2022-10-16T00:37:28;64.73;;;61.03;;
4575;SDS011;2300;51.874;8.430;2022-10-16T00:39:55;62.90;;;59.20;;
4575;SDS011;2300;51.874;8.430;2022-10-16T00:42:22;65.35;;;61.78;;
4575;SDS011;2300;51.874;8.430;2022-10-16T00:44:49;68.20;;;64.50;;
4575;SDS011;2300;51.874;8.430;2022-10-16T00:47:19;65.65;;;62.10;;
4575;SDS011;2300;51.874;8.430;2022-10-16T00:49:50;64.03;;;60.40;;
4575;SDS011;2300;51.874;8.430;2022-10-16T00:52:19;59.03;;;55.60;;
4575;SDS011;2300;51.874;8.430;2022-10-16T00:54:46;67.43;;;63.90;;
4575;SDS011;2300;51.874;8.430;2022-10-16T00:57:15;67.57;;;63.97;;
4575;SDS011;2300;51.874;8.430;2022-10-16T00:59:41;66.15;;;62.60;;
4575;SDS011;2300;51.874;8.430;2022-10-16T01:02:10;67.05;;;62.95;;
4575;SDS011;2300;51.874;8.430;2022-10-16T01:04:40;64.57;;;60.97;;
4575;SDS011;2300;51.874;8.430;2022-10-16T01:07:12;65.40;;;61.60;;
4575;SDS011;2300;51.874;8.430;2022-10-16T01:09:52;63.92;;;60.40;;
4575;SDS011;2300;51.874;8.430;2022-10-16T01:12:29;62.60;;;59.30;;
4575;SDS011;2300;51.874;8.430;2022-10-16T01:15:06;64.10;;;60.60;;
4575;SDS011;2300;51.874;8.430;2022-10-16T01:17:38;63.60;;;60.17;;
4575;SDS011;2300;51.874;8.430;2022-10-16T01:20:10;67.00;;;63.13;;
4575;SDS011;2300;51.874;8.430;2022-10-16T01:22:48;63.20;;;59.80;;
4575;SDS011;2300;51.874;8.430;2022-10-16T01:25:30;64.83;;;61.33;;
4575;SDS011;2300;51.874;8.430;2022-10-16T01:28:07;67.57;;;63.30;;
4575;SDS011;2300;51.874;8.430;2022-10-16T01:30:38;63.80;;;60.05;;
4575;SDS011;2300;51.874;8.430;2022-10-16T01:33:08;60.00;;;56.50;;
4575;SDS011;2300;51.874;8.430;2022-10-16T01:35:41;64.30;;;60.60;;
4575;SDS011;2300;51.874;8.430;2022-10-16T01:38:12;59.33;;;55.83;;
4575;SDS011;2300;51.874;8.430;2022-10-16T01:40:44;59.47;;;55.63;;
4575;SDS011;2300;51.874;8.430;2022-10-16T01:43:15;58.00;;;54.73;;
4575;SDS011;2300;51.874;8.430;2022-10-16T01:45:45;63.75;;;60.20;;
4575;SDS011;2300;51.874;8.430;2022-10-16T01:48:12;67.33;;;63.40;;
4575;SDS011;2300;51.874;8.430;2022-10-16T01:50:43;63.88;;;60.13;;
4575;SDS011;2300;51.874;8.430;2022-10-16T01:53:15;64.50;;;60.57;;
4575;SDS011;2300;51.874;8.430;2022-10-16T01:55:44;62.10;;;58.63;;
4575;SDS011;2300;51.874;8.430;2022-10-16T01:58:15;62.55;;;58.85;;
4575;SDS011;2300;51.874;8.430;2022-10-16T02:00:43;68.57;;;64.87;;
4575;SDS011;2300;51.874;8.430;2022-10-16T02:03:13;67.65;;;64.10;;
4575;SDS011;2300;51.874;8.430;2022-10-16T02:05:42;68.13;;;64.53;;
4575;SDS011;2300;51.874;8.430;2022-10-16T02:08:12;68.80;;;65.00;;
4575;SDS011;2300;51.874;8.430;2022-10-16T02:10:39;69.87;;;66.13;;
4575;SDS011;2300;51.874;8.430;2022-10-16T02:13:08;70.73;;;66.93;;
4575;SDS011;2300;51.874;8.430;2022-10-16T02:15:39;70.47;;;66.87;;
4575;SDS011;2300;51.874;8.430;2022-10-16T02:18:06;69.53;;;66.00;;
4575;SDS011;2300;51.874;8.430;2022-10-16T02:20:34;66.93;;;63.37;;
4575;SDS011;2300;51.874;8.430;2022-10-16T02:23:09;67.10;;;63.70;;
4575;SDS011;2300;51.874;8.430;2022-10-16T02:25:41;67.23;;;63.40;;
4575;SDS011;2300;51.874;8.430;2022-10-16T02:28:13;66.13;;;62.33;;
4575;SDS011;2300;51.874;8.430;2022-10-16T02:30:46;62.45;;;59.05;;
4575;SDS011;2300;51.874;8.430;2022-10-16T02:33:16;61.87;;;58.30;;
4575;SDS011;2300;51.874;8.430;2022-10-16T02:35:46;62.70;;;58.97;;
4575;SDS011;2300;51.874;8.430;2022-10-16T02:38:15;58.40;;;54.90;;
4575;SDS011;2300;51.874;8.430;2022-10-16T02:40:43;63.93;;;60.33;;
4575;SDS011;2300;51.874;8.430;2022-10-16T02:43:11;61.97;;;58.22;;
4575;SDS011;2300;51.874;8.430;2022-10-16T02:45:38;58.08;;;54.70;;
4575;SDS011;2300;51.874;8.430;2022-10-16T02:48:06;62.33;;;58.67;;
4575;SDS011;2300;51.874;8.430;2022-10-16T02:50:33;60.07;;;56.30;;
4575;SDS011;2300;51.874;8.430;2022-10-16T02:53:00;59.90;;;56.23;;
4575;SDS011;2300;51.874;8.430;2022-10-16T02:55:26;56.17;;;53.00;;
4575;SDS011;2300;51.874;8.430;2022-10-16T02:57:54;58.40;;;55.30;;
4575;SDS011;2300;51.874;8.430;2022-10-16T03:00:20;60.00;;;56.63;;
4575;SDS011;2300;51.874;8.430;2022-10-16T03:02:47;60.38;;;56.80;;
4575;SDS011;2300;51.874;8.430;2022-10-16T03:05:15;60.87;;;57.53;;
4575;SDS011;2300;51.874;8.430;2022-10-16T03:07:42;61.77;;;58.17;;
4575;SDS011;2300;51.874;8.430;2022-10-16T03:10:08;61.17;;;57.67;;
4575;SDS011;2300;51.874;8.430;2022-10-16T03:12:35;56.73;;;53.53;;
4575;SDS011;2300;51.874;8.430;2022-10-16T03:15:02;61.00;;;57.43;;
4575;SDS011;2300;51.874;8.430;2022-10-16T03:17:29;59.30;;;55.77;;
4575;SDS011;2300;51.874;8.430;2022-10-16T03:19:57;63.03;;;59.43;;
4575;SDS011;2300;51.874;8.430;2022-10-16T03:22:25;57.93;;;54.63;;
4575;SDS011;2300;51.874;8.430;2022-10-16T03:24:51;59.13;;;55.63;;
4575;SDS011;2300;51.874;8.430;2022-10-16T03:27:18;63.83;;;60.33;;
4575;SDS011;2300;51.874;8.430;2022-10-16T03:29:44;62.00;;;58.57;;
4575;SDS011;2300;51.874;8.430;2022-10-16T03:32:11;61.97;;;58.60;;
4575;SDS011;2300;51.874;8.430;2022-10-16T03:34:38;61.00;;;57.40;;
4575;SDS011;2300;51.874;8.430;2022-10-16T03:37:04;60.63;;;57.30;;
4575;SDS011;2300;51.874;8.430;2022-10-16T03:39:32;61.67;;;58.17;;
4575;SDS011;2300;51.874;8.430;2022-10-16T03:41:59;61.67;;;58.00;;
4575;SDS011;2300;51.874;8.430;2022-10-16T03:44:25;59.40;;;56.20;;
4575;SDS011;2300;51.874;8.430;2022-10-16T03:46:52;61.00;;;57.53;;
4575;SDS011;2300;51.874;8.430;2022-10-16T03:49:18;62.60;;;59.07;;
4575;SDS011;2300;51.874;8.430;2022-10-16T03:51:45;62.83;;;59.40;;
4575;SDS011;2300;51.874;8.430;2022-10-16T03:54:11;60.53;;;57.13;;
4575;SDS011;2300;51.874;8.430;2022-10-16T03:56:39;59.53;;;56.13;;
4575;SDS011;2300;51.874;8.430;2022-10-16T03:59:06;60.03;;;56.72;;
4575;SDS011;2300;51.874;8.430;2022-10-16T04:01:32;59.87;;;56.57;;
4575;SDS011;2300;51.874;8.430;2022-10-16T04:03:59;55.73;;;52.37;;
4575;SDS011;2300;51.874;8.430;2022-10-16T04:06:26;57.27;;;54.27;;
4575;SDS011;2300;51.874;8.430;2022-10-16T04:08:53;56.60;;;53.30;;
4575;SDS011;2300;51.874;8.430;2022-10-16T04:11:19;55.67;;;52.83;;
4575;SDS011;2300;51.874;8.430;2022-10-16T04:13:47;53.83;;;51.10;;
4575;SDS011;2300;51.874;8.430;2022-10-16T04:16:15;52.50;;;49.50;;
4575;SDS011;2300;51.874;8.430;2022-10-16T04:18:41;54.07;;;51.10;;
4575;SDS011;2300;51.874;8.430;2022-10-16T04:21:08;54.73;;;51.73;;
4575;SDS011;2300;51.874;8.430;2022-10-16T04:23:35;52.87;;;50.13;;
4575;SDS011;2300;51.874;8.430;2022-10-16T04:26:01;54.20;;;51.53;;
4575;SDS011;2300;51.874;8.430;2022-10-16T04:28:28;55.57;;;52.43;;
4575;SDS011;2300;51.874;8.430;2022-10-16T04:30:56;52.77;;;49.97;;
4575;SDS011;2300;51.874;8.430;2022-10-16T04:33:23;51.00;;;48.40;;
4575;SDS011;2300;51.874;8.430;2022-10-16T04:35:55;52.23;;;49.43;;
4575;SDS011;2300;51.874;8.430;2022-10-16T04:38:23;51.93;;;49.33;;
4575;SDS011;2300;51.874;8.430;2022-10-16T04:40:49;51.73;;;49.03;;
4575;SDS011;2300;51.874;8.430;2022-10-16T04:43:16;51.17;;;48.47;;
4575;SDS011;2300;51.874;8.430;2022-10-16T04:45:42;48.97;;;46.47;;
4575;SDS011;2300;51.874;8.430;2022-10-16T04:48:11;50.97;;;48.57;;
4575;SDS011;2300;51.874;8.430;2022-10-16T04:50:37;53.53;;;50.27;;
4575;SDS011;2300;51.874;8.430;2022-10-16T04:53:04;53.50;;;50.73;;
4575;SDS011;2300;51.874;8.430;2022-10-16T04:55:30;52.20;;;49.47;;
4575;SDS011;2300;51.874;8.430;2022-10-16T04:57:58;48.63;;;46.37;;
4575;SDS011;2300;51.874;8.430;2022-10-16T05:00:24;50.30;;;47.70;;
4575;SDS011;2300;51.874;8.430;2022-10-16T05:02:51;54.90;;;52.10;;
4575;SDS011;2300;51.874;8.430;2022-10-16T05:05:19;57.47;;;54.47;;
4575;SDS011;2300;51.874;8.430;2022-10-16T05:07:46;52.23;;;49.50;;
4575;SDS011;2300;51.874;8.430;2022-10-16T05:10:13;56.90;;;53.77;;
4575;SDS011;2300;51.874;8.430;2022-10-16T05:12:39;53.37;;;50.67;;
4575;SDS011;2300;51.874;8.430;2022-10-16T05:15:06;55.90;;;52.93;;
4575;SDS011;2300;51.874;8.430;2022-10-16T05:17:33;53.77;;;51.03;;
4575;SDS011;2300;51.874;8.430;2022-10-16T05:20:00;54.93;;;52.33;;
4575;SDS011;2300;51.874;8.430;2022-10-16T05:22:28;55.43;;;52.47;;
4575;SDS011;2300;51.874;8.430;2022-10-16T05:24:54;55.07;;;52.10;;
4575;SDS011;2300;51.874;8.430;2022-10-16T05:27:21;55.77;;;52.73;;
4575;SDS011;2300;51.874;8.430;2022-10-16T05:29:48;56.47;;;53.20;;
4575;SDS011;2300;51.874;8.430;2022-10-16T05:32:15;53.77;;;51.10;;
4575;SDS011;2300;51.874;8.430;2022-10-16T05:34:42;56.07;;;52.93;;
4575;SDS011;2300;51.874;8.430;2022-10-16T05:37:10;56.07;;;53.30;;
4575;SDS011;2300;51.874;8.430;2022-10-16T05:39:39;58.57;;;55.40;;
4575;SDS011;2300;51.874;8.430;2022-10-16T05:42:05;58.80;;;55.80;;
4575;SDS011;2300;51.874;8.430;2022-10-16T05:44:32;58.37;;;55.47;;
4575;SDS011;2300;51.874;8.430;2022-10-16T05:46:58;58.33;;;55.37;;
4575;SDS011;2300;51.874;8.430;2022-10-16T05:49:25;59.17;;;56.17;;
4575;SDS011;2300;51.874;8.430;2022-10-16T05:51:51;59.80;;;56.80;;
4575;SDS011;2300;51.874;8.430;2022-10-16T05:54:18;54.53;;;51.63;;
4575;SDS011;2300;51.874;8.430;2022-10-16T05:56:46;55.47;;;52.77;;
4575;SDS011;2300;51.874;8.430;2022-10-16T05:59:13;59.60;;;56.50;;
4575;SDS011;2300;51.874;8.430;2022-10-16T06:01:39;58.33;;;55.13;;
4575;SDS011;2300;51.874;8.430;2022-10-16T06:04:06;58.23;;;55.13;;
4575;SDS011;2300;51.874;8.430;2022-10-16T06:06:32;54.87;;;52.17;;
4575;SDS011;2300;51.874;8.430;2022-10-16T06:09:01;56.43;;;53.53;;
4575;SDS011;2300;51.874;8.430;2022-10-16T06:11:29;57.17;;;54.27;;
4575;SDS011;2300;51.874;8.430;2022-10-16T06:13:59;58.57;;;55.47;;
4575;SDS011;2300;51.874;8.430;2022-10-16T06:16:27;55.83;;;52.97;;
4575;SDS011;2300;51.874;8.430;2022-10-16T06:18:55;55.30;;;52.40;;
4575;SDS011;2300;51.874;8.430;2022-10-16T06:21:24;57.17;;;54.27;;
4575;SDS011;2300;51.874;8.430;2022-10-16T06:23:51;56.80;;;53.87;;
4575;SDS011;2300;51.874;8.430;2022-10-16T06:26:20;56.00;;;53.23;;
4575;SDS011;2300;51.874;8.430;2022-10-16T06:28:48;56.90;;;54.00;;
4575;SDS011;2300;51.874;8.430;2022-10-16T06:31:17;55.90;;;53.00;;
4575;SDS011;2300;51.874;8.430;2022-10-16T06:33:44;53.50;;;51.00;;
4575;SDS011;2300;51.874;8.430;2022-10-16T06:36:12;56.23;;;53.63;;
4575;SDS011;2300;51.874;8.430;2022-10-16T06:38:40;54.47;;;51.67;;
4575;SDS011;2300;51.874;8.430;2022-10-16T06:41:09;54.63;;;51.83;;
4575;SDS011;2300;51.874;8.430;2022-10-16T06:43:38;53.77;;;51.17;;
4575;SDS011;2300;51.874;8.430;2022-10-16T06:46:05;54.07;;;51.57;;
4575;SDS011;2300;51.874;8.430;2022-10-16T06:48:35;54.60;;;51.77;;
4575;SDS011;2300;51.874;8.430;2022-10-16T06:51:02;50.50;;;48.17;;
4575;SDS011;2300;51.874;8.430;2022-10-16T06:53:31;51.27;;;48.57;;
4575;SDS011;2300;51.874;8.430;2022-10-16T06:56:06;53.13;;;50.57;;
4575;SDS011;2300;51.874;8.430;2022-10-16T06:58:33;53.20;;;50.77;;
4575;SDS011;2300;51.874;8.430;2022-10-16T07:01:00;53.40;;;50.90;;
4575;SDS011;2300;51.874;8.430;2022-10-16T07:03:27;49.67;;;47.13;;
4575;SDS011;2300;51.874;8.430;2022-10-16T07:05:55;49.30;;;47.00;;
4575;SDS011;2300;51.874;8.430;2022-10-16T07:08:21;48.23;;;45.60;;
4575;SDS011;2300;51.874;8.430;2022-10-16T07:10:48;54.47;;;51.77;;
4575;SDS011;2300;51.874;8.430;2022-10-16T07:13:14;55.95;;;52.90;;
4575;SDS011;2300;51.874;8.430;2022-10-16T07:15:41;56.17;;;53.63;;
4575;SDS011;2300;51.874;8.430;2022-10-16T07:18:08;57.60;;;54.83;;
4575;SDS011;2300;51.874;8.430;2022-10-16T07:20:35;54.87;;;52.20;;
4575;SDS011;2300;51.874;8.430;2022-10-16T07:23:03;56.03;;;53.43;;
4575;SDS011;2300;51.874;8.430;2022-10-16T07:25:31;54.57;;;52.07;;
4575;SDS011;2300;51.874;8.430;2022-10-16T07:27:57;54.53;;;51.93;;
4575;SDS011;2300;51.874;8.430;2022-10-16T07:30:24;55.33;;;52.73;;
4575;SDS011;2300;51.874;8.430;2022-10-16T07:32:50;57.23;;;54.40;;
4575;SDS011;2300;51.874;8.430;2022-10-16T07:35:17;57.30;;;54.55;;
4575;SDS011;2300;51.874;8.430;2022-10-16T07:37:44;58.58;;;55.78;;
4575;SDS011;2300;51.874;8.430;2022-10-16T07:40:12;55.47;;;52.88;;
4575;SDS011;2300;51.874;8.430;2022-10-16T07:42:39;55.72;;;53.03;;
4575;SDS011;2300;51.874;8.430;2022-10-16T07:45:06;56.30;;;53.40;;
4575;SDS011;2300;51.874;8.430;2022-10-16T07:47:33;54.47;;;51.97;;
4575;SDS011;2300;51.874;8.430;2022-10-16T07:49:59;54.23;;;51.43;;
4575;SDS011;2300;51.874;8.430;2022-10-16T07:52:25;51.88;;;48.92;;
4575;SDS011;2300;51.874;8.430;2022-10-16T07:54:52;52.03;;;49.58;;
4575;SDS011;2300;51.874;8.430;2022-10-16T07:57:20;51.75;;;49.15;;
4575;SDS011;2300;51.874;8.430;2022-10-16T07:59:46;50.33;;;47.83;;
4575;SDS011;2300;51.874;8.430;2022-10-16T08:02:13;52.72;;;50.20;;
4575;SDS011;2300;51.874;8.430;2022-10-16T08:04:39;53.70;;;51.25;;
4575;SDS011;2300;51.874;8.430;2022-10-16T08:07:06;54.10;;;51.53;;
4575;SDS011;2300;51.874;8.430;2022-10-16T08:09:33;51.22;;;48.63;;
4575;SDS011;2300;51.874;8.430;2022-10-16T08:12:00;52.08;;;49.58;;
4575;SDS011;2300;51.874;8.430;2022-10-16T08:14:28;53.22;;;50.72;;
4575;SDS011;2300;51.874;8.430;2022-10-16T08:16:55;53.92;;;51.22;;
4575;SDS011;2300;51.874;8.430;2022-10-16T08:19:21;53.35;;;50.83;;
4575;SDS011;2300;51.874;8.430;2022-10-16T08:21:48;52.50;;;49.90;;
4575;SDS011;2300;51.874;8.430;2022-10-16T08:24:14;53.05;;;50.70;;
4575;SDS011;2300;51.874;8.430;2022-10-16T08:26:41;52.60;;;49.88;;
4575;SDS011;2300;51.874;8.430;2022-10-16T08:29:07;50.53;;;47.85;;
4575;SDS011;2300;51.874;8.430;2022-10-16T08:31:35;51.05;;;48.60;;
4575;SDS011;2300;51.874;8.430;2022-10-16T08:34:02;48.83;;;46.42;;
4575;SDS011;2300;51.874;8.430;2022-10-16T08:36:28;47.95;;;45.30;;
4575;SDS011;2300;51.874;8.430;2022-10-16T08:38:54;47.25;;;44.95;;
4575;SDS011;2300;51.874;8.430;2022-10-16T08:41:23;47.17;;;44.92;;
4575;SDS011;2300;51.874;8.430;2022-10-16T08:44:09;45.75;;;43.65;;
4575;SDS011;2300;51.874;8.430;2022-10-16T08:46:59;46.45;;;44.00;;
4575;SDS011;2300;51.874;8.430;2022-10-16T08:49:33;46.22;;;43.92;;
4575;SDS011;2300;51.874;8.430;2022-10-16T08:52:01;49.05;;;46.83;;
4575;SDS011;2300;51.874;8.430;2022-10-16T08:54:29;51.60;;;49.00;;
4575;SDS011;2300;51.874;8.430;2022-10-16T08:57:01;46.72;;;44.17;;
4575;SDS011;2300;51.874;8.430;2022-10-16T08:59:35;46.83;;;44.63;;
4575;SDS011;2300;51.874;8.430;2022-10-16T09:02:08;47.53;;;45.13;;
4575;SDS011;2300;51.874;8.430;2022-10-16T09:07:45;47.13;;;44.83;;
4575;SDS011;2300;51.874;8.430;2022-10-16T09:10:24;47.65;;;45.35;;
4575;SDS011;2300;51.874;8.430;2022-10-16T09:13:01;52.33;;;49.53;;
4575;SDS011;2300;51.874;8.430;2022-10-16T09:15:44;48.15;;;45.75;;
4575;SDS011;2300;51.874;8.430;2022-10-16T09:18:20;48.25;;;45.92;;
4575;SDS011;2300;51.874;8.430;2022-10-16T09:20:50;47.38;;;44.97;;
4575;SDS011;2300;51.874;8.430;2022-10-16T09:23:24;44.67;;;42.47;;
4575;SDS011;2300;51.874;8.430;2022-10-16T09:25:56;46.90;;;44.45;;
4575;SDS011;2300;51.874;8.430;2022-10-16T09:28:36;48.20;;;45.90;;
4575;SDS011;2300;51.874;8.430;2022-10-16T09:31:03;46.50;;;44.00;;
4575;SDS011;2300;51.874;8.430;2022-10-16T09:33:32;43.38;;;41.42;;
4575;SDS011;2300;51.874;8.430;2022-10-16T09:36:02;44.95;;;42.78;;
4575;SDS011;2300;51.874;8.430;2022-10-16T09:38:31;44.97;;;42.65;;
4575;SDS011;2300;51.874;8.430;2022-10-16T09:40:59;42.05;;;39.78;;
4575;SDS011;2300;51.874;8.430;2022-10-16T09:43:28;49.95;;;47.30;;
4575;SDS011;2300;51.874;8.430;2022-10-16T09:46:01;42.80;;;40.70;;
4575;SDS011;2300;51.874;8.430;2022-10-16T09:48:33;42.78;;;40.58;;
4575;SDS011;2300;51.874;8.430;2022-10-16T09:51:03;45.47;;;43.15;;
4575;SDS011;2300;51.874;8.430;2022-10-16T09:53:38;55.47;;;52.70;;
4575;SDS011;2300;51.874;8.430;2022-10-16T09:56:07;54.42;;;51.83;;
4575;SDS011;2300;51.874;8.430;2022-10-16T09:58:41;50.65;;;47.97;;
4575;SDS011;2300;51.874;8.430;2022-10-16T10:01:11;57.13;;;54.30;;
4575;SDS011;2300;51.874;8.430;2022-10-16T10:03:41;51.63;;;48.90;;
4575;SDS011;2300;51.874;8.430;2022-10-16T10:06:20;49.58;;;47.08;;
4575;SDS011;2300;51.874;8.430;2022-10-16T10:14:28;40.00;;;37.90;;
4575;SDS011;2300;51.874;8.430;2022-10-16T10:17:02;40.38;;;38.47;;
4575;SDS011;2300;51.874;8.430;2022-10-16T10:19:39;41.38;;;39.28;;
4575;SDS011;2300;51.874;8.430;2022-10-16T10:22:15;40.05;;;38.15;;
4575;SDS011;2300;51.874;8.430;2022-10-16T10:24:43;43.22;;;41.05;;
4575;SDS011;2300;51.874;8.430;2022-10-16T10:27:11;43.78;;;41.38;;
4575;SDS011;2300;51.874;8.430;2022-10-16T10:29:45;49.65;;;47.13;;
4575;SDS011;2300;51.874;8.430;2022-10-16T10:32:24;45.85;;;43.47;;
4575;SDS011;2300;51.874;8.430;2022-10-16T10:35:11;50.50;;;48.08;;
4575;SDS011;2300;51.874;8.430;2022-10-16T10:40:48;53.97;;;51.45;;
4575;SDS011;2300;51.874;8.430;2022-10-16T10:43:35;53.20;;;50.60;;
4575;SDS011;2300;51.874;8.430;2022-10-16T10:46:31;55.72;;;52.65;;
4575;SDS011;2300;51.874;8.430;2022-10-16T10:49:08;54.78;;;52.35;;
4575;SDS011;2300;51.874;8.430;2022-10-16T10:51:44;52.85;;;50.38;;
4575;SDS011;2300;51.874;8.430;2022-10-16T10:54:26;50.75;;;48.22;;
4575;SDS011;2300;51.874;8.430;2022-10-16T10:57:00;55.50;;;52.75;;
4575;SDS011;2300;51.874;8.430;2022-10-16T10:59:33;53.95;;;51.45;;
4575;SDS011;2300;51.874;8.430;2022-10-16T11:02:46;49.17;;;46.67;;
4575;SDS011;2300;51.874;8.430;2022-10-16T11:05:37;50.33;;;47.90;;
4575;SDS011;2300;51.874;8.430;2022-10-16T11:08:10;48.22;;;46.03;;
4575;SDS011;2300;51.874;8.430;2022-10-16T11:10:45;54.80;;;51.80;;
4575;SDS011;2300;51.874;8.430;2022-10-16T11:13:19;50.22;;;47.80;;
4575;SDS011;2300;51.874;8.430;2022-10-16T11:15:53;48.92;;;46.47;;
4575;SDS011;2300;51.874;8.430;2022-10-16T11:18:24;47.75;;;45.53;;
4575;SDS011;2300;51.874;8.430;2022-10-16T11:20:57;55.53;;;52.85;;
4575;SDS011;2300;51.874;8.430;2022-10-16T11:23:30;51.25;;;48.92;;
4575;SDS011;2300;51.874;8.430;2022-10-16T11:26:02;54.85;;;52.33;;
4575;SDS011;2300;51.874;8.430;2022-10-16T11:28:32;58.13;;;55.47;;
4575;SDS011;2300;51.874;8.430;2022-10-16T11:31:04;47.05;;;44.70;;
4575;SDS011;2300;51.874;8.430;2022-10-16T11:33:36;50.80;;;48.53;;
4575;SDS011;2300;51.874;8.430;2022-10-16T11:36:09;49.42;;;46.90;;
4575;SDS011;2300;51.874;8.430;2022-10-16T11:38:43;60.13;;;57.22;;
4575;SDS011;2300;51.874;8.430;2022-10-16T11:41:18;61.17;;;58.28;;
4575;SDS011;2300;51.874;8.430;2022-10-16T11:43:52;58.30;;;55.25;;
4575;SDS011;2300;51.874;8.430;2022-10-16T11:46:32;87.30;;;83.28;;
4575;SDS011;2300;51.874;8.430;2022-10-16T11:49:03;83.85;;;79.82;;
4575;SDS011;2300;51.874;8.430;2022-10-16T11:51:38;80.68;;;76.88;;
4575;SDS011;2300;51.874;8.430;2022-10-16T11:54:14;77.03;;;73.45;;
4575;SDS011;2300;51.874;8.430;2022-10-16T11:56:48;91.68;;;87.43;;
4575;SDS011;2300;51.874;8.430;2022-10-16T11:59:21;118.68;;;113.20;;
4575;SDS011;2300;51.874;8.430;2022-10-16T12:01:55;114.30;;;109.13;;
4575;SDS011;2300;51.874;8.430;2022-10-16T12:04:45;112.20;;;107.10;;
4575;SDS011;2300;51.874;8.430;2022-10-16T12:07:14;108.60;;;103.78;;
4575;SDS011;2300;51.874;8.430;2022-10-16T12:09:47;110.80;;;105.85;;
4575;SDS011;2300;51.874;8.430;2022-10-16T12:12:24;101.78;;;96.95;;
4575;SDS011;2300;51.874;8.430;2022-10-16T12:14:59;112.68;;;107.55;;
4575;SDS011;2300;51.874;8.430;2022-10-16T12:17:27;106.45;;;101.60;;
4575;SDS011;2300;51.874;8.430;2022-10-16T12:20:01;116.72;;;111.50;;
4575;SDS011;2300;51.874;8.430;2022-10-16T12:22:47;104.20;;;99.45;;
4575;SDS011;2300;51.874;8.430;2022-10-16T12:25:21;75.90;;;72.43;;
4575;SDS011;2300;51.874;8.430;2022-10-16T12:27:53;81.75;;;78.15;;
4575;SDS011;2300;51.874;8.430;2022-10-16T12:30:23;92.13;;;87.90;;
4575;SDS011;2300;51.874;8.430;2022-10-16T12:32:54;72.30;;;68.88;;
4575;SDS011;2300;51.874;8.430;2022-10-16T12:35:23;101.40;;;97.05;;
4575;SDS011;2300;51.874;8.430;2022-10-16T12:37:52;117.30;;;112.07;;
4575;SDS011;2300;51.874;8.430;2022-10-16T12:40:26;108.53;;;103.63;;
4575;SDS011;2300;51.874;8.430;2022-10-16T12:42:54;116.45;;;110.95;;
4575;SDS011;2300;51.874;8.430;2022-10-16T12:45:26;112.43;;;107.30;;
4575;SDS011;2300;51.874;8.430;2022-10-16T12:47:56;115.20;;;109.97;;
4575;SDS011;2300;51.874;8.430;2022-10-16T12:50:26;116.32;;;110.97;;
4575;SDS011;2300;51.874;8.430;2022-10-16T12:52:56;114.95;;;109.97;;
4575;SDS011;2300;51.874;8.430;2022-10-16T12:55:25;118.28;;;113.03;;
4575;SDS011;2300;51.874;8.430;2022-10-16T12:57:59;113.07;;;107.97;;
4575;SDS011;2300;51.874;8.430;2022-10-16T13:00:35;108.85;;;103.95;;
4575;SDS011;2300;51.874;8.430;2022-10-16T13:06:18;107.45;;;102.75;;
4575;SDS011;2300;51.874;8.430;2022-10-16T13:08:56;103.85;;;98.90;;
4575;SDS011;2300;51.874;8.430;2022-10-16T13:11:51;107.20;;;102.00;;
4575;SDS011;2300;51.874;8.430;2022-10-16T13:14:29;108.47;;;103.68;;
4575;SDS011;2300;51.874;8.430;2022-10-16T13:17:09;105.43;;;100.75;;
4575;SDS011;2300;51.874;8.430;2022-10-16T13:19:45;110.90;;;106.05;;
4575;SDS011;2300;51.874;8.430;2022-10-16T13:22:21;104.57;;;99.82;;
4575;SDS011;2300;51.874;8.430;2022-10-16T13:24:55;107.30;;;102.28;;
4575;SDS011;2300;51.874;8.430;2022-10-16T13:27:34;103.53;;;98.80;;
4575;SDS011;2300;51.874;8.430;2022-10-16T13:30:10;105.55;;;100.90;;
4575;SDS011;2300;51.874;8.430;2022-10-16T13:32:39;103.60;;;98.95;;
4575;SDS011;2300;51.874;8.430;2022-10-16T13:35:19;103.90;;;99.35;;
4575;SDS011;2300;51.874;8.430;2022-10-16T13:37:48;110.07;;;105.20;;
4575;SDS011;2300;51.874;8.430;2022-10-16T13:40:18;109.40;;;104.55;;
4575;SDS011;2300;51.874;8.430;2022-10-16T13:42:59;111.57;;;106.70;;
4575;SDS011;2300;51.874;8.430;2022-10-16T13:45:26;110.20;;;105.22;;
4575;SDS011;2300;51.874;8.430;2022-10-16T13:48:01;107.53;;;102.75;;
4575;SDS011;2300;51.874;8.430;2022-10-16T13:50:28;110.18;;;105.07;;
4575;SDS011;2300;51.874;8.430;2022-10-16T13:53:02;105.57;;;100.80;;
4575;SDS011;2300;51.874;8.430;2022-10-16T13:55:30;113.57;;;108.40;;
4575;SDS011;2300;51.874;8.430;2022-10-16T13:58:06;106.55;;;101.75;;
4575;SDS011;2300;51.874;8.430;2022-10-16T14:00:34;107.05;;;102.40;;
4575;SDS011;2300;51.874;8.430;2022-10-16T14:03:02;111.18;;;106.30;;
4575;SDS011;2300;51.874;8.430;2022-10-16T14:05:31;116.22;;;111.07;;
4575;SDS011;2300;51.874;8.430;2022-10-16T14:07:58;108.95;;;104.05;;
4575;SDS011;2300;51.874;8.430;2022-10-16T14:10:26;92.38;;;88.10;;
4575;SDS011;2300;51.874;8.430;2022-10-16T14:12:55;88.45;;;84.53;;
4575;SDS011;2300;51.874;8.430;2022-10-16T14:15:25;79.30;;;75.43;;
4575;SDS011;2300;51.874;8.430;2022-10-16T14:17:51;86.28;;;82.47;;
4575;SDS011;2300;51.874;8.430;2022-10-16T14:20:20;89.85;;;85.85;;
4575;SDS011;2300;51.874;8.430;2022-10-16T14:22:57;77.13;;;73.35;;
4575;SDS011;2300;51.874;8.430;2022-10-16T14:25:25;66.38;;;63.28;;
4575;SDS011;2300;51.874;8.430;2022-10-16T14:27:58;88.00;;;83.95;;
4575;SDS011;2300;51.874;8.430;2022-10-16T14:30:31;84.00;;;80.10;;
4575;SDS011;2300;51.874;8.430;2022-10-16T14:33:00;80.78;;;77.18;;
4575;SDS011;2300;51.874;8.430;2022-10-16T14:35:30;76.85;;;73.40;;
4575;SDS011;2300;51.874;8.430;2022-10-16T14:37:58;71.32;;;68.10;;
4575;SDS011;2300;51.874;8.430;2022-10-16T14:40:28;53.28;;;50.67;;
4575;SDS011;2300;51.874;8.430;2022-10-16T14:42:56;45.85;;;43.72;;
4575;SDS011;2300;51.874;8.430;2022-10-16T14:45:26;51.40;;;48.95;;
4575;SDS011;2300;51.874;8.430;2022-10-16T14:47:57;56.45;;;53.75;;
4575;SDS011;2300;51.874;8.430;2022-10-16T14:50:25;57.45;;;54.65;;
4575;SDS011;2300;51.874;8.430;2022-10-16T14:52:51;58.28;;;55.53;;
4575;SDS011;2300;51.874;8.430;2022-10-16T14:55:18;58.97;;;56.38;;
4575;SDS011;2300;51.874;8.430;2022-10-16T14:57:45;55.78;;;53.17;;
4575;SDS011;2300;51.874;8.430;2022-10-16T15:00:14;58.13;;;55.40;;
4575;SDS011;2300;51.874;8.430;2022-10-16T15:02:44;67.18;;;64.05;;
4575;SDS011;2300;51.874;8.430;2022-10-16T15:05:13;79.18;;;75.57;;
4575;SDS011;2300;51.874;8.430;2022-10-16T15:07:43;84.47;;;80.43;;
4575;SDS011;2300;51.874;8.430;2022-10-16T15:10:10;76.00;;;72.60;;
4575;SDS011;2300;51.874;8.430;2022-10-16T15:12:37;66.80;;;63.63;;
4575;SDS011;2300;51.874;8.430;2022-10-16T15:18:00;62.67;;;59.67;;
4575;SDS011;2300;51.874;8.430;2022-10-16T15:20:30;58.58;;;55.72;;